Time;durP1;ratioP1;P1;durP2;ratioP2;P2;SDS_P1;SDS_P2;PMS_P1;PMS_P2;Temp;Humidity;BMP_temperature;BMP_pressure;BME280_temperature;BME280_humidity;BME280_pressure;Samples;Min_cycle;Max_cycle;Signal;HPM_P1;HPM_P2
2024/04/15 00:02:10;;;;;;;0.10;0.10;;;;;;;5.17;74.71;100014.16;5417169;26;20217;-76
2024/04/15 00:04:36;;;;;;;0.00;0.00;;;;;;;5.15;74.39;100010.75;5416791;26;20306;-76
2024/04/15 00:07:07;;;;;;;0.20;0.20;;;;;;;5.13;74.56;100011.63;5416946;26;20236;-76
2024/04/15 00:09:33;;;;;;;0.10;0.10;;;;;;;5.13;74.63;100009.91;5415819;26;20317;-76
2024/04/15 00:12:01;;;;;;;0.10;0.10;;;;;;;5.13;74.43;100014.22;5416866;26;20229;-76
2024/04/15 00:14:27;;;;;;;0.20;0.20;;;;;;;5.06;74.80;100006.53;5416654;26;20316;-76
2024/04/15 00:16:56;;;;;;;0.00;0.00;;;;;;;5.10;74.71;100025.50;5416604;26;20237;-76
2024/04/15 00:19:26;;;;;;;0.50;0.10;;;;;;;5.10;74.44;100027.22;5416719;26;20236;-76
2024/04/15 00:21:54;;;;;;;0.10;0.10;;;;;;;5.08;74.29;100032.41;5416855;26;20313;-68
2024/04/15 00:24:23;;;;;;;0.20;0.10;;;;;;;5.06;74.84;100035.06;5416533;26;20350;-69
2024/04/15 00:26:51;;;;;;;0.00;0.00;;;;;;;5.06;74.38;100039.34;5416541;26;20221;-69
2024/04/15 00:29:20;;;;;;;0.20;0.20;;;;;;;5.05;74.54;100040.25;5416341;26;20288;-67
2024/04/15 00:31:46;;;;;;;0.10;0.10;;;;;;;5.02;74.32;100030.75;5416218;26;20281;-68
2024/04/15 00:34:16;;;;;;;0.10;0.10;;;;;;;5.01;74.73;100039.44;5416217;26;20326;-69
2024/04/15 00:36:44;;;;;;;0.10;0.10;;;;;;;5.01;74.38;100044.59;5416019;26;20263;-68
2024/04/15 00:39:12;;;;;;;0.10;0.10;;;;;;;5.01;74.58;100051.53;5416423;26;20256;-68
2024/04/15 00:41:42;;;;;;;0.10;0.10;;;;;;;5.00;74.62;100049.78;5416173;26;20718;-70
2024/04/15 00:44:10;;;;;;;0.03;0.03;;;;;;;5.00;74.61;100047.19;5415290;26;20225;-70
2024/04/15 00:46:37;;;;;;;0.10;0.10;;;;;;;4.99;74.36;100050.69;5415976;26;20272;-69
2024/04/15 00:49:06;;;;;;;0.13;0.13;;;;;;;4.98;74.42;100049.84;5416236;26;20212;-70
2024/04/15 00:51:32;;;;;;;0.00;0.00;;;;;;;4.91;74.61;100035.19;5415654;26;20322;-70
2024/04/15 00:54:01;;;;;;;0.10;0.10;;;;;;;4.96;74.14;100048.13;5419630;26;20322;-70
2024/04/15 00:56:27;;;;;;;0.10;0.10;;;;;;;4.96;74.47;100054.16;5419462;26;20229;-70
2024/04/15 00:59:00;;;;;;;0.03;0.03;;;;;;;4.94;74.35;100048.13;5419665;26;20321;-70
2024/04/15 01:01:26;;;;;;;0.10;0.10;;;;;;;4.94;74.19;100053.31;5418263;26;20269;-70
2024/04/15 01:03:57;;;;;;;0.10;0.10;;;;;;;4.94;74.65;100050.72;5419464;26;20221;-70
2024/04/15 01:06:24;;;;;;;0.03;0.03;;;;;;;4.93;74.58;100050.72;5419657;26;20224;-70
2024/04/15 01:08:53;;;;;;;0.00;0.00;;;;;;;4.93;74.53;100058.50;5419520;26;20225;-70
2024/04/15 01:11:19;;;;;;;0.10;0.10;;;;;;;4.93;74.66;100068.88;5419333;26;20284;-70
2024/04/15 01:13:47;;;;;;;0.20;0.20;;;;;;;4.91;74.11;100062.84;5419188;26;20229;-70
2024/04/15 01:16:16;;;;;;;0.13;0.10;;;;;;;4.90;74.47;100074.09;5419155;26;20362;-70
2024/04/15 01:18:44;;;;;;;0.10;0.10;;;;;;;4.89;74.43;100078.41;5419755;26;20236;-70
2024/04/15 01:21:10;;;;;;;0.43;0.23;;;;;;;4.86;74.26;100081.91;5412730;26;20335;-70
2024/04/15 01:23:41;;;;;;;0.30;0.30;;;;;;;4.88;74.40;100084.47;5419198;26;20714;-70
2024/04/15 01:26:09;;;;;;;0.30;0.23;;;;;;;4.86;74.11;100091.38;5418241;26;20285;-70
2024/04/15 01:28:38;;;;;;;0.13;0.13;;;;;;;4.84;74.34;100087.97;5419194;26;20236;-70
2024/04/15 01:31:04;;;;;;;0.40;0.30;;;;;;;4.83;74.46;100096.59;5419201;26;20272;-76
2024/04/15 01:33:32;;;;;;;0.10;0.10;;;;;;;4.80;74.44;100086.25;5418052;26;20686;-76
2024/04/15 01:35:58;;;;;;;0.10;0.10;;;;;;;4.80;74.53;100094.03;5419119;26;20276;-76
2024/04/15 01:38:26;;;;;;;0.03;0.03;;;;;;;4.81;73.97;100100.97;5417305;26;20577;-76
2024/04/15 01:40:52;;;;;;;0.10;0.10;;;;;;;4.80;74.00;100109.59;5418944;26;20794;-76
2024/04/15 01:43:24;;;;;;;0.20;0.20;;;;;;;4.73;74.18;100089.81;5419017;26;20329;-76
2024/04/15 01:45:49;;;;;;;0.20;0.20;;;;;;;4.75;74.52;100096.69;5414205;26;20268;-77
2024/04/15 01:48:18;;;;;;;0.10;0.10;;;;;;;4.74;74.38;100088.91;5418985;26;20221;-76
2024/04/15 01:50:44;;;;;;;0.00;0.00;;;;;;;4.74;74.08;100092.38;5418978;26;20213;-76
2024/04/15 01:53:12;;;;;;;0.10;0.10;;;;;;;4.72;74.35;100086.38;5418634;26;20221;-76
2024/04/15 01:55:38;;;;;;;0.27;0.27;;;;;;;4.71;73.89;100083.78;5419078;26;20313;-76
2024/04/15 01:58:07;;;;;;;0.10;0.10;;;;;;;4.71;74.44;100099.31;5418600;26;20543;-75
2024/04/15 02:00:35;;;;;;;0.17;0.17;;;;;;;4.71;73.81;100094.13;5418759;26;20229;-76
2024/04/15 02:03:05;;;;;;;0.53;0.20;;;;;;;4.69;73.80;100091.53;5418163;26;20447;-75
2024/04/15 02:05:31;;;;;;;0.10;0.10;;;;;;;4.67;73.77;100089.88;5418748;26;20573;-75
2024/04/15 02:08:01;;;;;;;0.20;0.20;;;;;;;4.67;73.99;100097.66;5418955;26;20233;-76
2024/04/15 02:10:27;;;;;;;0.17;0.10;;;;;;;4.64;74.37;100101.97;5418557;26;20221;-75
2024/04/15 02:12:55;;;;;;;0.00;0.00;;;;;;;4.62;74.34;100098.53;5418501;26;20778;-75
2024/04/15 02:15:21;;;;;;;0.30;0.30;;;;;;;4.60;74.19;100102.00;5418580;26;20280;-76
2024/04/15 02:17:52;;;;;;;0.43;0.30;;;;;;;4.61;73.61;100103.75;5418783;26;20572;-76
2024/04/15 02:20:18;;;;;;;0.17;0.17;;;;;;;4.60;73.67;100105.44;5418588;26;20326;-75
2024/04/15 02:22:47;;;;;;;0.10;0.10;;;;;;;4.57;73.65;100109.81;5418192;26;20232;-75
2024/04/15 02:25:13;;;;;;;0.53;0.20;;;;;;;4.58;74.06;100112.41;5418308;26;20237;-76
2024/04/15 02:27:41;;;;;;;0.30;0.30;;;;;;;4.57;74.19;100117.56;5418389;26;20574;-76
2024/04/15 02:30:07;;;;;;;0.17;0.17;;;;;;;4.55;74.36;100116.72;5413658;26;20790;-75
2024/04/15 02:32:36;;;;;;;0.30;0.30;;;;;;;4.53;74.01;100118.50;5418218;26;20454;-76
2024/04/15 02:35:05;;;;;;;0.20;0.20;;;;;;;4.52;73.60;100122.81;5418391;26;20217;-75
2024/04/15 02:37:34;;;;;;;0.10;0.10;;;;;;;4.50;73.72;100119.38;5413640;26;20228;-75
2024/04/15 02:40:00;;;;;;;0.10;0.10;;;;;;;4.48;73.80;100123.69;5418084;26;20341;-76
2024/04/15 02:42:28;;;;;;;0.30;0.30;;;;;;;4.47;74.24;100126.31;5418390;26;20466;-76
2024/04/15 02:44:54;;;;;;;0.20;0.20;;;;;;;4.46;74.10;100128.03;5418309;26;20228;-76
2024/04/15 02:47:23;;;;;;;0.87;0.10;;;;;;;4.44;74.16;100127.19;5417908;26;20805;-75
2024/04/15 02:49:48;;;;;;;0.10;0.10;;;;;;;4.44;73.81;100122.00;5417936;26;20233;-75
2024/04/15 02:52:20;;;;;;;0.03;0.03;;;;;;;4.43;73.65;100130.63;5417884;26;20559;-76
2024/04/15 02:54:46;;;;;;;0.10;0.10;;;;;;;4.41;73.91;100122.03;5411953;26;20236;-76
2024/04/15 02:57:14;;;;;;;0.23;0.13;;;;;;;4.39;73.98;100129.81;5417762;26;20240;-76
2024/04/15 02:59:40;;;;;;;0.23;0.23;;;;;;;4.37;73.98;100128.09;5417550;26;20217;-76
2024/04/15 03:02:09;;;;;;;0.20;0.20;;;;;;;4.34;73.95;100131.56;5417610;26;20447;-73
2024/04/15 03:04:35;;;;;;;0.10;0.10;;;;;;;4.31;73.62;100118.66;5417606;26;20475;-73
2024/04/15 03:07:03;;;;;;;0.23;0.23;;;;;;;4.29;73.91;100130.72;5417318;26;20681;-74
2024/04/15 03:09:32;;;;;;;0.20;0.20;;;;;;;4.30;73.46;100134.22;5417494;26;20728;-74
2024/04/15 03:12:00;;;;;;;0.10;0.10;;;;;;;4.29;73.56;100137.66;5417517;26;20447;-73
2024/04/15 03:14:26;;;;;;;0.20;0.20;;;;;;;4.26;74.05;100141.13;5417285;26;20446;-73
2024/04/15 03:16:54;;;;;;;0.10;0.10;;;;;;;4.26;73.83;100142.84;5417579;26;20259;-74
2024/04/15 03:19:20;;;;;;;0.30;0.10;;;;;;;4.23;73.57;100148.91;5417109;26;20339;-74
2024/04/15 03:21:49;;;;;;;0.00;0.00;;;;;;;4.22;73.58;100146.34;5417371;26;20233;-73
2024/04/15 03:24:15;;;;;;;0.00;0.00;;;;;;;4.19;73.93;100148.06;5417551;26;20288;-73
2024/04/15 03:26:46;;;;;;;0.00;0.00;;;;;;;4.21;74.15;100144.59;5417316;26;20566;-74
2024/04/15 03:29:12;;;;;;;0.10;0.10;;;;;;;4.18;73.59;100151.56;5417446;26;20781;-73
2024/04/15 03:31:40;;;;;;;0.20;0.20;;;;;;;4.16;74.08;100153.28;5417400;26;20550;-74
2024/04/15 03:34:06;;;;;;;0.43;0.20;;;;;;;4.11;73.55;100147.25;5417140;26;20217;-73
2024/04/15 03:36:35;;;;;;;0.20;0.20;;;;;;;4.13;73.82;100148.13;5416424;26;20497;-73
2024/04/15 03:39:03;;;;;;;0.17;0.17;;;;;;;4.12;73.96;100151.59;5417194;26;20335;-74
2024/04/15 03:41:32;;;;;;;0.20;0.20;;;;;;;4.10;73.66;100162.81;5416959;26;20467;-73
2024/04/15 03:44:01;;;;;;;0.10;0.10;;;;;;;4.05;73.50;100160.25;5417166;26;20459;-74
2024/04/15 03:46:30;;;;;;;0.20;0.20;;;;;;;4.05;73.56;100162.84;5417124;26;20442;-74
2024/04/15 03:48:56;;;;;;;0.13;0.13;;;;;;;4.04;73.46;100170.59;5416853;26;20474;-73
2024/04/15 03:51:25;;;;;;;0.03;0.03;;;;;;;4.01;73.90;100163.75;5417289;26;20576;-70
2024/04/15 03:53:51;;;;;;;0.10;0.10;;;;;;;3.97;73.14;100156.84;5416825;26;20349;-70
2024/04/15 03:56:19;;;;;;;0.23;0.23;;;;;;;3.96;73.74;100162.91;5415997;26;20463;-70
2024/04/15 03:58:45;;;;;;;0.10;0.10;;;;;;;3.94;73.29;100168.06;5416711;26;20334;-70
2024/04/15 04:01:16;;;;;;;0.27;0.27;;;;;;;3.92;73.84;100168.94;5416793;26;20807;-70
2024/04/15 04:03:42;;;;;;;0.20;0.20;;;;;;;3.90;73.23;100171.56;5416223;26;20338;-70
2024/04/15 04:06:10;;;;;;;0.20;0.20;;;;;;;3.88;73.63;100177.59;5416796;26;20457;-70
2024/04/15 04:08:36;;;;;;;0.20;0.20;;;;;;;3.86;73.31;100184.50;5416438;26;20276;-70
2024/04/15 04:11:07;;;;;;;0.50;0.10;;;;;;;3.85;73.42;100188.81;5416688;26;20462;-70
2024/04/15 04:13:34;;;;;;;1.50;0.33;;;;;;;3.84;73.51;100186.22;5414710;26;20668;-70
2024/04/15 04:16:02;;;;;;;0.30;0.30;;;;;;;3.77;73.35;100179.38;5411852;26;20446;-70
2024/04/15 04:18:31;;;;;;;0.23;0.23;;;;;;;3.80;73.28;100195.75;5416585;26;20507;-70
2024/04/15 04:21:00;;;;;;;0.27;0.27;;;;;;;3.80;73.30;100194.88;5416295;26;20462;-70
2024/04/15 04:23:25;;;;;;;0.40;0.33;;;;;;;3.78;73.85;100196.59;5416396;26;20581;-70
2024/04/15 04:25:54;;;;;;;0.30;0.30;;;;;;;3.78;73.13;100199.19;5416667;26;20469;-69
2024/04/15 04:28:20;;;;;;;0.20;0.20;;;;;;;3.76;73.63;100191.47;5417896;26;20765;-70
2024/04/15 04:30:48;;;;;;;0.20;0.20;;;;;;;3.76;73.76;100193.19;5419769;26;20554;-69
2024/04/15 04:33:14;;;;;;;0.20;0.20;;;;;;;3.73;73.52;100197.50;5419651;26;20237;-70
2024/04/15 04:35:45;;;;;;;0.20;0.20;;;;;;;3.72;73.43;100197.50;5419805;26;20458;-70
2024/04/15 04:38:11;;;;;;;0.30;0.30;;;;;;;3.68;73.38;100185.44;5419859;26;20274;-70
2024/04/15 04:40:40;;;;;;;0.50;0.20;;;;;;;3.69;73.32;100203.53;5419444;26;21104;-70
2024/04/15 04:43:06;;;;;;;0.43;0.40;;;;;;;3.68;73.48;100201.81;5419573;26;20322;-70
2024/04/15 04:45:35;;;;;;;0.30;0.30;;;;;;;3.68;73.73;100201.81;5419681;26;20458;-70
2024/04/15 04:48:01;;;;;;;1.30;0.40;;;;;;;3.66;73.62;100206.13;5419688;26;20325;-70
2024/04/15 04:50:29;;;;;;;0.23;0.23;;;;;;;3.62;73.80;100196.69;5419633;26;20985;-70
2024/04/15 04:52:58;;;;;;;0.20;0.20;;;;;;;3.63;73.59;100207.88;5419542;26;20217;-70
2024/04/15 04:55:26;;;;;;;0.30;0.30;;;;;;;3.59;73.65;100209.63;5327780;26;20487;-70
2024/04/15 04:57:52;;;;;;;0.20;0.20;;;;;;;3.57;73.14;100208.75;5408156;26;20528;-70
2024/04/15 05:00:21;;;;;;;0.30;0.30;;;;;;;3.57;73.42;100208.75;5419374;26;20922;-73
2024/04/15 05:02:47;;;;;;;0.40;0.40;;;;;;;3.54;73.46;100219.13;5419377;26;20235;-74
2024/04/15 05:05:15;;;;;;;0.40;0.40;;;;;;;3.56;73.40;100222.56;5419592;26;20457;-74
2024/04/15 05:07:41;;;;;;;0.13;0.13;;;;;;;3.53;73.32;100214.81;5419515;26;20333;-73
2024/04/15 05:10:13;;;;;;;0.20;0.20;;;;;;;3.54;73.35;100229.47;5419228;26;20982;-73
2024/04/15 05:12:38;;;;;;;0.23;0.23;;;;;;;3.53;73.42;100232.94;5417652;26;20229;-73
2024/04/15 05:15:07;;;;;;;1.00;0.37;;;;;;;3.52;73.34;100241.53;5419302;26;20545;-74
2024/04/15 05:17:34;;;;;;;0.30;0.30;;;;;;;3.50;73.77;100227.75;5419080;26;20295;-74
2024/04/15 05:20:05;;;;;;;0.20;0.20;;;;;;;3.49;73.54;100231.19;5419335;26;20886;-74
2024/04/15 05:22:30;;;;;;;0.30;0.30;;;;;;;3.51;73.37;100234.66;5419126;26;20456;-68
2024/04/15 05:24:59;;;;;;;0.30;0.30;;;;;;;3.51;73.17;100229.47;5419013;26;20443;-68
2024/04/15 05:27:27;;;;;;;0.47;0.47;;;;;;;3.49;73.70;100239.81;5419074;26;20281;-68
2024/04/15 05:29:56;;;;;;;0.30;0.30;;;;;;;3.51;73.87;100237.22;5418959;26;20506;-68
2024/04/15 05:32:22;;;;;;;0.30;0.30;;;;;;;3.51;73.48;100242.41;5414667;26;21150;-68
2024/04/15 05:34:50;;;;;;;0.97;0.30;;;;;;;3.51;73.52;100234.66;5418674;26;20488;-68
2024/04/15 05:37:16;;;;;;;0.40;0.40;;;;;;;3.48;73.99;100230.34;5417910;26;20348;-68
2024/04/15 05:39:45;;;;;;;0.37;0.37;;;;;;;3.50;73.84;100232.94;5417215;26;20971;-69
2024/04/15 05:42:10;;;;;;;0.40;0.40;;;;;;;3.52;73.98;100231.19;5418129;26;20275;-68
2024/04/15 05:44:42;;;;;;;0.40;0.40;;;;;;;3.53;74.06;100232.94;5418779;26;20580;-68
2024/04/15 05:47:08;;;;;;;0.40;0.40;;;;;;;3.45;73.83;100216.56;5418590;26;20362;-68
2024/04/15 05:49:37;;;;;;;0.70;0.50;;;;;;;3.54;73.92;100232.06;5418828;26;20464;-68
2024/04/15 05:52:04;;;;;;;0.60;0.60;;;;;;;3.56;73.63;100240.69;5418827;26;20690;-69
2024/04/15 05:54:33;;;;;;;0.97;0.47;;;;;;;3.59;73.91;100240.66;5418318;26;20454;-68
2024/04/15 05:57:01;;;;;;;0.30;0.30;;;;;;;3.60;73.82;100244.97;5418565;26;20470;-68
2024/04/15 05:59:29;;;;;;;0.33;0.33;;;;;;;3.61;73.93;100241.53;5418461;26;20569;-68
2024/04/15 06:01:58;;;;;;;0.67;0.63;;;;;;;3.63;73.87;100242.38;5414684;26;20514;-68
2024/04/15 06:04:27;;;;;;;0.60;0.47;;;;;;;3.64;73.74;100241.53;5418394;26;20532;-68
2024/04/15 06:06:53;;;;;;;0.30;0.30;;;;;;;3.66;74.12;100242.34;5418218;26;21062;-69
2024/04/15 06:09:21;;;;;;;0.60;0.43;;;;;;;3.68;74.21;100243.22;5418442;26;20569;-69
2024/04/15 06:11:47;;;;;;;0.33;0.33;;;;;;;3.69;74.11;100244.94;5418415;26;20612;-72
2024/04/15 06:14:16;;;;;;;1.23;0.60;;;;;;;3.72;73.96;100239.78;5418025;26;20458;-72
2024/04/15 06:16:42;;;;;;;0.50;0.50;;;;;;;3.73;73.95;100241.50;5415062;26;20615;-72
2024/04/15 06:19:13;;;;;;;0.47;0.47;;;;;;;3.79;73.87;100239.75;5418103;26;20573;-73
2024/04/15 06:21:39;;;;;;;0.40;0.40;;;;;;;3.80;74.30;100244.91;5418672;26;20224;-72
2024/04/15 06:24:08;;;;;;;0.43;0.23;;;;;;;3.81;74.09;100235.41;5418176;26;20636;-73
2024/04/15 06:26:34;;;;;;;0.30;0.30;;;;;;;3.87;73.83;100248.34;5413425;26;20232;-72
2024/04/15 06:29:03;;;;;;;0.33;0.33;;;;;;;3.89;73.57;100246.59;5418148;26;20450;-72
2024/04/15 06:31:32;;;;;;;0.33;0.33;;;;;;;3.92;73.86;100241.41;5418359;26;20287;-76
2024/04/15 06:34:01;;;;;;;0.40;0.40;;;;;;;3.94;73.88;100239.69;5418054;26;20463;-77
2024/04/15 06:36:30;;;;;;;0.53;0.43;;;;;;;3.98;73.93;100244.00;5418583;26;20457;-77
2024/04/15 06:38:58;;;;;;;0.27;0.27;;;;;;;4.03;74.25;100234.47;5417918;26;20470;-77
2024/04/15 06:41:24;;;;;;;0.20;0.20;;;;;;;4.04;73.86;100236.19;5415489;26;20525;-77
2024/04/15 06:43:53;;;;;;;0.37;0.30;;;;;;;4.12;74.42;100251.69;5418061;26;20918;-77
2024/04/15 06:46:19;;;;;;;0.20;0.20;;;;;;;4.17;74.10;100247.34;5417933;26;20288;-77
2024/04/15 06:48:47;;;;;;;0.30;0.30;;;;;;;4.19;74.02;100251.66;5417906;26;20450;-77
2024/04/15 06:51:13;;;;;;;0.60;0.57;;;;;;;4.22;73.96;100242.16;5411852;26;20585;-76
2024/04/15 06:53:44;;;;;;;1.37;0.53;;;;;;;4.26;73.85;100246.44;5417816;26;20466;-76
2024/04/15 06:56:10;;;;;;;1.30;0.60;;;;;;;4.32;73.74;100259.34;5417756;26;20221;-76
2024/04/15 06:58:39;;;;;;;0.30;0.30;;;;;;;4.36;73.92;100261.06;5417588;26;20224;-76
2024/04/15 07:01:05;;;;;;;0.30;0.30;;;;;;;4.28;73.19;100240.38;5417859;26;20286;-77
2024/04/15 07:03:33;;;;;;;0.20;0.20;;;;;;;4.44;73.44;100266.22;5414316;26;20450;-76
2024/04/15 07:05:59;;;;;;;0.60;0.37;;;;;;;4.42;73.38;100255.84;5417693;26;20478;-76
2024/04/15 07:08:28;;;;;;;1.07;0.43;;;;;;;4.47;73.36;100255.84;5416079;26;20658;-77
2024/04/15 07:10:56;;;;;;;0.60;0.40;;;;;;;4.52;72.80;100259.22;5417603;26;20577;-77
2024/04/15 07:13:25;;;;;;;0.40;0.40;;;;;;;4.45;72.75;100248.06;5417402;26;20506;-76
2024/04/15 07:15:51;;;;;;;1.80;0.80;;;;;;;4.56;72.97;100266.13;5417238;26;20533;-76
2024/04/15 07:18:19;;;;;;;0.80;0.40;;;;;;;4.54;72.49;100263.53;5417399;26;20224;-76
2024/04/15 07:20:45;;;;;;;1.00;0.40;;;;;;;4.58;73.07;100262.66;5417608;26;20322;-75
2024/04/15 07:23:14;;;;;;;0.60;0.40;;;;;;;4.59;72.56;100266.97;5417438;26;20229;-74
2024/04/15 07:25:40;;;;;;;0.30;0.30;;;;;;;4.62;72.39;100266.94;5417412;26;20740;-74
2024/04/15 07:28:11;;;;;;;0.30;0.30;;;;;;;4.64;72.80;100265.22;5417059;26;20559;-75
2024/04/15 07:30:37;;;;;;;0.40;0.40;;;;;;;4.64;72.58;100264.34;5417747;26;20224;-75
2024/04/15 07:33:06;;;;;;;0.40;0.40;;;;;;;4.67;72.60;100266.06;5417198;26;20212;-75
2024/04/15 07:35:32;;;;;;;1.43;0.60;;;;;;;4.68;72.54;100270.38;5417217;26;20280;-75
2024/04/15 07:38:00;;;;;;;0.40;0.40;;;;;;;4.72;72.51;100262.59;5416372;26;20466;-74
2024/04/15 07:40:26;;;;;;;2.17;0.53;;;;;;;4.76;73.06;100261.69;5417288;26;20232;-71
2024/04/15 07:42:55;;;;;;;2.53;0.70;;;;;;;4.73;72.51;100266.03;5417175;26;20340;-71
2024/04/15 07:45:24;;;;;;;0.40;0.40;;;;;;;4.80;72.61;100270.28;5417125;26;20260;-71
2024/04/15 07:47:52;;;;;;;1.30;0.53;;;;;;;4.82;72.30;100273.72;5413798;26;20455;-70
2024/04/15 07:50:18;;;;;;;0.50;0.50;;;;;;;4.85;72.29;100278.88;5416961;26;20220;-71
2024/04/15 07:52:47;;;;;;;1.10;0.60;;;;;;;4.86;72.41;100270.22;5416966;26;20810;-71
2024/04/15 07:55:13;;;;;;;1.53;0.70;;;;;;;4.87;72.48;100277.16;5417002;26;20265;-71
2024/04/15 07:57:41;;;;;;;0.40;0.40;;;;;;;4.90;72.67;100271.94;5416868;26;20459;-71
2024/04/15 08:00:09;;;;;;;3.53;0.80;;;;;;;4.90;72.36;100269.34;5416126;26;20532;-71
2024/04/15 08:02:40;;;;;;;0.50;0.50;;;;;;;4.94;72.61;100271.06;5415775;26;20506;-71
2024/04/15 08:05:06;;;;;;;0.77;0.60;;;;;;;4.96;72.52;100278.84;5417245;26;20264;-71
2024/04/15 08:07:35;;;;;;;1.70;0.70;;;;;;;4.99;72.13;100281.41;5416797;26;20664;-71
2024/04/15 08:10:01;;;;;;;0.47;0.47;;;;;;;4.98;72.12;100285.75;5417089;26;20218;-71
2024/04/15 08:12:29;;;;;;;0.83;0.43;;;;;;;5.01;72.43;100295.25;5416926;26;20248;-71
2024/04/15 08:14:55;;;;;;;0.77;0.70;;;;;;;5.04;72.26;100298.66;5416730;26;20246;-70
2024/04/15 08:17:23;;;;;;;0.90;0.60;;;;;;;5.06;71.95;100299.53;5416821;26;20734;-71
2024/04/15 08:19:52;;;;;;;0.63;0.60;;;;;;;5.09;72.10;100288.25;5411428;26;20347;-70
2024/04/15 08:22:22;;;;;;;0.80;0.70;;;;;;;5.08;71.69;100297.75;5416770;26;20221;-71
2024/04/15 08:24:48;;;;;;;0.50;0.50;;;;;;;5.11;71.85;100304.66;5415162;26;20309;-71
2024/04/15 08:27:16;;;;;;;1.43;0.80;;;;;;;5.13;72.03;100299.47;5412554;26;20225;-71
2024/04/15 08:29:43;;;;;;;0.50;0.50;;;;;;;5.16;71.89;100304.63;5415851;26;20276;-71
2024/04/15 08:32:11;;;;;;;0.60;0.60;;;;;;;5.05;72.34;100282.22;5416238;26;20219;-69
2024/04/15 08:34:37;;;;;;;0.40;0.40;;;;;;;5.20;71.89;100306.31;5416017;26;20339;-69
2024/04/15 08:37:08;;;;;;;1.33;0.60;;;;;;;5.23;71.66;100299.38;5416150;26;20233;-69
2024/04/15 08:39:35;;;;;;;2.10;0.77;;;;;;;5.24;71.70;100302.84;5416190;26;20233;-69
2024/04/15 08:42:09;;;;;;;1.13;0.50;;;;;;;5.17;71.73;100285.59;5416675;26;20217;-69
2024/04/15 08:44:40;;;;;;;0.60;0.60;;;;;;;5.27;72.10;100300.22;5412755;26;20312;-69
2024/04/15 08:47:12;;;;;;;0.50;0.50;;;;;;;5.28;71.34;100307.09;5416223;26;20222;-69
2024/04/15 08:49:39;;;;;;;0.50;0.50;;;;;;;5.29;71.78;100303.66;5412893;26;20264;-69
2024/04/15 08:52:16;;;;;;;1.00;0.60;;;;;;;5.33;71.51;100310.53;5416283;26;20262;-70
2024/04/15 08:54:42;;;;;;;1.13;0.60;;;;;;;5.36;71.98;100318.28;5416201;26;20608;-69
2024/04/15 08:57:12;;;;;;;0.57;0.53;;;;;;;5.37;71.39;100304.44;5415951;26;20220;-69
2024/04/15 08:59:42;;;;;;;2.20;0.70;;;;;;;5.39;71.68;100305.28;5415438;26;20221;-69
2024/04/15 09:02:15;;;;;;;1.80;0.70;;;;;;;5.42;71.47;100310.44;5415542;26;20221;-69
2024/04/15 09:04:42;;;;;;;0.50;0.40;;;;;;;5.44;71.79;100308.69;5415934;26;20217;-69
2024/04/15 09:07:13;;;;;;;1.23;0.40;;;;;;;5.47;71.26;100300.88;5415344;26;20228;-70
2024/04/15 09:09:39;;;;;;;0.53;0.53;;;;;;;5.50;71.71;100308.66;5416030;26;20272;-70
2024/04/15 09:12:09;;;;;;;0.50;0.37;;;;;;;5.53;71.55;100305.16;5415682;26;20221;-70
2024/04/15 09:14:35;;;;;;;2.23;0.70;;;;;;;5.58;71.63;100299.94;5418985;26;20225;-70
2024/04/15 09:17:04;;;;;;;1.53;0.73;;;;;;;5.60;71.24;100311.13;5419353;26;20836;-69
2024/04/15 09:19:31;;;;;;;0.30;0.30;;;;;;;5.53;71.37;100287.84;5419060;26;20284;-70
2024/04/15 09:22:02;;;;;;;1.20;0.60;;;;;;;5.63;71.28;100304.22;5419249;26;20212;-69
2024/04/15 09:24:31;;;;;;;0.57;0.57;;;;;;;5.65;71.23;100307.63;5419000;26;20224;-70
2024/04/15 09:26:59;;;;;;;1.53;0.47;;;;;;;5.68;71.00;100315.38;5414027;26;20697;-70
2024/04/15 09:29:25;;;;;;;0.57;0.40;;;;;;;5.72;71.02;100321.44;5419134;26;20229;-70
2024/04/15 09:31:54;;;;;;;0.33;0.30;;;;;;;5.74;70.97;100314.47;5416166;26;20778;-70
2024/04/15 09:34:21;;;;;;;2.10;0.70;;;;;;;5.76;70.71;100312.72;5418964;26;20814;-70
2024/04/15 09:36:50;;;;;;;0.70;0.40;;;;;;;5.81;70.74;100320.47;5418478;26;20268;-70
2024/04/15 09:39:16;;;;;;;0.50;0.50;;;;;;;5.75;71.12;100311.88;5419044;26;20224;-70
2024/04/15 09:41:51;;;;;;;0.27;0.27;;;;;;;5.86;71.17;100316.94;5419022;26;20249;-69
2024/04/15 09:44:20;;;;;;;1.10;0.63;;;;;;;5.88;70.72;100315.19;5418989;26;20224;-70
2024/04/15 09:46:48;;;;;;;0.23;0.23;;;;;;;5.91;70.67;100322.06;5419119;26;20232;-69
2024/04/15 09:49:17;;;;;;;0.50;0.40;;;;;;;5.94;70.44;100322.94;5418647;26;20339;-69
2024/04/15 09:51:48;;;;;;;1.17;0.40;;;;;;;5.98;70.81;100318.56;5418526;26;20554;-69
2024/04/15 09:54:17;;;;;;;0.53;0.50;;;;;;;6.02;70.22;100311.56;5415713;26;20321;-70
2024/04/15 09:56:51;;;;;;;0.27;0.27;;;;;;;6.04;70.06;100322.81;5418583;26;20221;-69
2024/04/15 09:59:17;;;;;;;0.50;0.50;;;;;;;6.08;70.17;100314.94;5414191;26;20232;-69
2024/04/15 10:01:48;;;;;;;0.40;0.40;;;;;;;6.12;70.07;100316.66;5418530;26;20266;-69
2024/04/15 10:04:20;;;;;;;0.70;0.67;;;;;;;6.17;69.87;100316.59;5418439;26;20289;-69
2024/04/15 10:06:51;;;;;;;0.40;0.40;;;;;;;6.18;69.32;100311.38;5418747;26;20225;-69
2024/04/15 10:09:18;;;;;;;0.70;0.50;;;;;;;6.20;69.24;100314.84;5417485;26;20267;-69
2024/04/15 10:11:51;;;;;;;2.33;0.50;;;;;;;6.22;69.32;100312.19;5418328;26;20217;-69
2024/04/15 10:14:18;;;;;;;0.33;0.33;;;;;;;6.22;69.25;100313.06;5418361;26;20390;-69
2024/04/15 10:16:48;;;;;;;0.53;0.53;;;;;;;6.24;68.97;100309.59;5418287;26;20269;-69
2024/04/15 10:19:22;;;;;;;1.30;0.47;;;;;;;6.29;69.25;100319.06;5418164;26;20217;-70
2024/04/15 10:21:51;;;;;;;1.43;0.50;;;;;;;6.32;68.88;100318.16;5418571;26;20220;-69
2024/04/15 10:24:17;;;;;;;0.90;0.67;;;;;;;6.34;69.03;100319.88;5417419;26;20343;-70
2024/04/15 10:26:49;;;;;;;1.37;0.60;;;;;;;6.36;69.23;100317.22;5418223;26;20713;-69
2024/04/15 10:29:19;;;;;;;1.70;0.87;;;;;;;6.37;68.77;100304.22;5418405;26;20264;-69
2024/04/15 10:31:52;;;;;;;0.63;0.50;;;;;;;6.42;69.05;100315.41;5418216;26;20562;-69
2024/04/15 10:34:21;;;;;;;0.57;0.50;;;;;;;6.42;68.67;100310.19;5418076;26;20217;-69
2024/04/15 10:36:53;;;;;;;0.50;0.50;;;;;;;6.50;69.07;100317.06;5418096;26;20314;-69
2024/04/15 10:39:20;;;;;;;0.67;0.60;;;;;;;6.51;68.64;100303.16;5416673;26;20230;-69
2024/04/15 10:41:52;;;;;;;1.30;0.70;;;;;;;6.56;68.85;100309.16;5418041;26;20233;-69
2024/04/15 10:44:18;;;;;;;1.03;0.60;;;;;;;6.59;68.63;100309.97;5418054;26;20232;-69
2024/04/15 10:46:49;;;;;;;0.60;0.50;;;;;;;6.63;68.33;100310.81;5418070;26;20268;-70
2024/04/15 10:49:16;;;;;;;1.70;0.57;;;;;;;6.64;68.45;100300.38;5418284;26;20364;-69
2024/04/15 10:51:45;;;;;;;0.70;0.50;;;;;;;6.67;68.22;100309.88;5418271;26;20645;-76
2024/04/15 10:54:11;;;;;;;0.83;0.50;;;;;;;6.73;67.66;100307.19;5414058;26;20343;-76
2024/04/15 10:56:40;;;;;;;0.60;0.50;;;;;;;6.76;67.35;100314.09;5417826;26;20226;-76
2024/04/15 10:59:12;;;;;;;0.50;0.50;;;;;;;6.75;67.77;100302.00;5417993;26;20233;-76
2024/04/15 11:01:41;;;;;;;0.40;0.40;;;;;;;6.83;67.70;100308.78;5415937;26;20564;-76
2024/04/15 11:04:07;;;;;;;1.43;0.50;;;;;;;6.87;67.38;100312.19;5418042;26;20226;-76
2024/04/15 11:06:36;;;;;;;1.33;0.30;;;;;;;6.92;67.59;100314.75;5417659;26;20330;-76
2024/04/15 11:09:04;;;;;;;1.13;0.50;;;;;;;6.96;67.35;100312.06;5417715;26;20238;-76
2024/04/15 11:11:33;;;;;;;1.60;0.50;;;;;;;7.00;67.43;100310.28;5418023;26;20695;-78
2024/04/15 11:14:00;;;;;;;0.80;0.57;;;;;;;7.05;67.21;100306.72;5415021;26;20763;-78
2024/04/15 11:16:32;;;;;;;1.73;0.90;;;;;;;7.09;67.20;100300.59;5417953;26;20218;-78
2024/04/15 11:19:05;;;;;;;1.40;0.63;;;;;;;7.14;67.42;100295.31;5417570;26;20274;-78
2024/04/15 11:21:33;;;;;;;0.50;0.50;;;;;;;7.20;67.45;100303.03;5413073;26;20246;-78
2024/04/15 11:23:59;;;;;;;0.47;0.47;;;;;;;7.25;66.70;100300.31;5411082;26;20273;-78
2024/04/15 11:26:28;;;;;;;0.80;0.50;;;;;;;7.31;67.10;100301.09;5412792;26;20231;-78
2024/04/15 11:28:54;;;;;;;2.57;0.70;;;;;;;7.38;66.34;100298.38;5417580;26;20711;-78
2024/04/15 11:31:23;;;;;;;0.80;0.50;;;;;;;7.43;66.39;100297.47;5418018;26;20213;-78
2024/04/15 11:33:52;;;;;;;3.00;0.70;;;;;;;7.49;66.54;100299.94;5412166;26;20347;-78
2024/04/15 11:36:21;;;;;;;1.23;0.47;;;;;;;7.55;66.48;100306.78;5415543;26;20285;-78
2024/04/15 11:38:47;;;;;;;0.50;0.50;;;;;;;7.61;66.64;100298.88;5415560;26;20806;-77